sensor_id;sensor_type;location;lat;lon;timestamp;P1;durP1;ratioP1;P2;durP2;ratioP2
71959;SDS011;59832;51.146;14.024;2024-03-07T00:02:10;62.13;;;30.37;;
71959;SDS011;59832;51.146;14.024;2024-03-07T00:04:37;63.50;;;30.13;;
71959;SDS011;59832;51.146;14.024;2024-03-07T00:07:03;63.55;;;29.80;;
71959;SDS011;59832;51.146;14.024;2024-03-07T00:09:33;65.45;;;30.30;;
71959;SDS011;59832;51.146;14.024;2024-03-07T00:12:03;58.13;;;29.15;;
71959;SDS011;59832;51.146;14.024;2024-03-07T00:14:31;61.60;;;29.85;;
71959;SDS011;59832;51.146;14.024;2024-03-07T00:16:58;54.60;;;28.58;;
71959;SDS011;59832;51.146;14.024;2024-03-07T00:19:27;52.55;;;27.73;;
71959;SDS011;59832;51.146;14.024;2024-03-07T00:21:54;50.22;;;27.02;;
71959;SDS011;59832;51.146;14.024;2024-03-07T00:24:20;50.83;;;26.80;;
71959;SDS011;59832;51.146;14.024;2024-03-07T00:26:47;53.20;;;27.95;;
71959;SDS011;59832;51.146;14.024;2024-03-07T00:29:16;53.15;;;26.60;;
71959;SDS011;59832;51.146;14.024;2024-03-07T00:31:45;58.00;;;29.00;;
71959;SDS011;59832;51.146;14.024;2024-03-07T00:34:13;57.28;;;28.38;;
71959;SDS011;59832;51.146;14.024;2024-03-07T00:36:50;57.75;;;28.77;;
71959;SDS011;59832;51.146;14.024;2024-03-07T00:39:18;69.25;;;31.08;;
71959;SDS011;59832;51.146;14.024;2024-03-07T00:41:46;74.05;;;33.05;;
71959;SDS011;59832;51.146;14.024;2024-03-07T00:44:15;74.68;;;33.40;;
71959;SDS011;59832;51.146;14.024;2024-03-07T00:46:42;76.30;;;34.65;;
71959;SDS011;59832;51.146;14.024;2024-03-07T00:49:09;79.28;;;35.47;;
71959;SDS011;59832;51.146;14.024;2024-03-07T00:51:36;72.57;;;33.77;;
71959;SDS011;59832;51.146;14.024;2024-03-07T00:54:05;81.25;;;34.42;;
71959;SDS011;59832;51.146;14.024;2024-03-07T00:56:32;71.65;;;34.58;;
71959;SDS011;59832;51.146;14.024;2024-03-07T00:58:59;69.40;;;33.87;;
71959;SDS011;59832;51.146;14.024;2024-03-07T01:01:25;72.47;;;33.85;;
71959;SDS011;59832;51.146;14.024;2024-03-07T01:03:52;75.97;;;33.57;;
71959;SDS011;59832;51.146;14.024;2024-03-07T01:06:18;74.50;;;33.95;;
71959;SDS011;59832;51.146;14.024;2024-03-07T01:08:46;74.10;;;33.75;;
71959;SDS011;59832;51.146;14.024;2024-03-07T01:11:12;69.87;;;33.47;;
71959;SDS011;59832;51.146;14.024;2024-03-07T01:13:40;74.28;;;34.38;;
71959;SDS011;59832;51.146;14.024;2024-03-07T01:16:07;69.35;;;34.03;;
71959;SDS011;59832;51.146;14.024;2024-03-07T01:18:34;77.95;;;35.80;;
71959;SDS011;59832;51.146;14.024;2024-03-07T01:21:01;70.63;;;35.00;;
71959;SDS011;59832;51.146;14.024;2024-03-07T01:23:28;73.97;;;34.88;;
71959;SDS011;59832;51.146;14.024;2024-03-07T01:25:55;77.47;;;37.35;;
71959;SDS011;59832;51.146;14.024;2024-03-07T01:28:25;81.57;;;38.47;;
71959;SDS011;59832;51.146;14.024;2024-03-07T01:33:19;77.23;;;36.57;;
71959;SDS011;59832;51.146;14.024;2024-03-07T01:35:45;84.85;;;38.38;;
71959;SDS011;59832;51.146;14.024;2024-03-07T01:38:12;83.80;;;39.03;;
71959;SDS011;59832;51.146;14.024;2024-03-07T01:43:07;83.20;;;37.83;;
71959;SDS011;59832;51.146;14.024;2024-03-07T01:45:34;77.15;;;36.58;;
71959;SDS011;59832;51.146;14.024;2024-03-07T01:48:02;84.18;;;39.00;;
71959;SDS011;59832;51.146;14.024;2024-03-07T01:50:34;87.65;;;39.03;;
71959;SDS011;59832;51.146;14.024;2024-03-07T01:53:05;85.13;;;38.25;;
71959;SDS011;59832;51.146;14.024;2024-03-07T01:55:33;86.10;;;38.60;;
71959;SDS011;59832;51.146;14.024;2024-03-07T02:00:28;76.90;;;36.15;;
71959;SDS011;59832;51.146;14.024;2024-03-07T02:02:54;79.65;;;37.00;;
71959;SDS011;59832;51.146;14.024;2024-03-07T02:05:21;80.15;;;38.05;;
71959;SDS011;59832;51.146;14.024;2024-03-07T02:07:47;79.22;;;37.38;;
71959;SDS011;59832;51.146;14.024;2024-03-07T02:10:14;81.88;;;38.45;;
71959;SDS011;59832;51.146;14.024;2024-03-07T02:12:41;77.22;;;36.05;;
71959;SDS011;59832;51.146;14.024;2024-03-07T02:15:07;67.13;;;34.58;;
71959;SDS011;59832;51.146;14.024;2024-03-07T02:17:34;70.35;;;34.90;;
71959;SDS011;59832;51.146;14.024;2024-03-07T02:20:02;69.07;;;33.97;;
71959;SDS011;59832;51.146;14.024;2024-03-07T02:22:30;69.45;;;35.38;;
71959;SDS011;59832;51.146;14.024;2024-03-07T02:24:57;62.80;;;31.20;;
71959;SDS011;59832;51.146;14.024;2024-03-07T02:27:23;62.40;;;32.50;;
71959;SDS011;59832;51.146;14.024;2024-03-07T02:29:49;65.07;;;32.97;;
71959;SDS011;59832;51.146;14.024;2024-03-07T02:32:17;66.60;;;34.20;;
71959;SDS011;59832;51.146;14.024;2024-03-07T02:34:44;64.85;;;32.83;;
71959;SDS011;59832;51.146;14.024;2024-03-07T02:37:10;68.40;;;34.35;;
71959;SDS011;59832;51.146;14.024;2024-03-07T02:39:36;72.65;;;35.35;;
71959;SDS011;59832;51.146;14.024;2024-03-07T02:42:03;64.90;;;34.80;;
71959;SDS011;59832;51.146;14.024;2024-03-07T02:44:30;72.55;;;36.25;;
71959;SDS011;59832;51.146;14.024;2024-03-07T02:46:58;69.28;;;35.60;;
71959;SDS011;59832;51.146;14.024;2024-03-07T02:49:24;75.93;;;38.05;;
71959;SDS011;59832;51.146;14.024;2024-03-07T02:51:51;70.97;;;37.10;;
71959;SDS011;59832;51.146;14.024;2024-03-07T02:54:17;77.50;;;36.92;;
71959;SDS011;59832;51.146;14.024;2024-03-07T02:56:44;76.10;;;38.10;;
71959;SDS011;59832;51.146;14.024;2024-03-07T02:59:11;71.47;;;37.00;;
71959;SDS011;59832;51.146;14.024;2024-03-07T03:01:38;77.67;;;38.80;;
71959;SDS011;59832;51.146;14.024;2024-03-07T03:04:05;71.32;;;37.60;;
71959;SDS011;59832;51.146;14.024;2024-03-07T03:06:31;77.40;;;39.03;;
71959;SDS011;59832;51.146;14.024;2024-03-07T03:08:58;75.38;;;39.70;;
71959;SDS011;59832;51.146;14.024;2024-03-07T03:11:24;74.90;;;39.07;;
71959;SDS011;59832;51.146;14.024;2024-03-07T03:13:52;79.63;;;40.28;;
71959;SDS011;59832;51.146;14.024;2024-03-07T03:16:18;79.82;;;41.08;;
71959;SDS011;59832;51.146;14.024;2024-03-07T03:19:03;80.13;;;41.15;;
71959;SDS011;59832;51.146;14.024;2024-03-07T03:21:30;83.90;;;41.38;;
71959;SDS011;59832;51.146;14.024;2024-03-07T03:23:56;75.45;;;39.97;;
71959;SDS011;59832;51.146;14.024;2024-03-07T03:26:23;78.93;;;40.83;;
71959;SDS011;59832;51.146;14.024;2024-03-07T03:28:49;79.47;;;41.60;;
71959;SDS011;59832;51.146;14.024;2024-03-07T03:31:16;83.35;;;41.75;;
71959;SDS011;59832;51.146;14.024;2024-03-07T03:33:43;78.93;;;42.05;;
71959;SDS011;59832;51.146;14.024;2024-03-07T03:36:09;76.30;;;40.03;;
71959;SDS011;59832;51.146;14.024;2024-03-07T03:38:37;74.07;;;40.75;;
71959;SDS011;59832;51.146;14.024;2024-03-07T03:41:03;75.55;;;40.28;;
71959;SDS011;59832;51.146;14.024;2024-03-07T03:43:31;74.03;;;40.22;;
71959;SDS011;59832;51.146;14.024;2024-03-07T03:45:58;74.65;;;39.47;;
71959;SDS011;59832;51.146;14.024;2024-03-07T03:48:24;75.38;;;39.83;;
71959;SDS011;59832;51.146;14.024;2024-03-07T03:50:51;71.00;;;37.07;;
71959;SDS011;59832;51.146;14.024;2024-03-07T03:53:18;63.90;;;34.53;;
71959;SDS011;59832;51.146;14.024;2024-03-07T03:55:44;65.95;;;34.83;;
71959;SDS011;59832;51.146;14.024;2024-03-07T03:58:11;64.28;;;34.88;;
71959;SDS011;59832;51.146;14.024;2024-03-07T04:00:37;65.22;;;34.75;;
71959;SDS011;59832;51.146;14.024;2024-03-07T04:03:05;64.93;;;34.15;;
71959;SDS011;59832;51.146;14.024;2024-03-07T04:05:33;61.42;;;33.63;;
71959;SDS011;59832;51.146;14.024;2024-03-07T04:07:59;65.63;;;33.17;;
71959;SDS011;59832;51.146;14.024;2024-03-07T04:10:26;66.00;;;33.03;;
71959;SDS011;59832;51.146;14.024;2024-03-07T04:12:53;56.30;;;31.60;;
71959;SDS011;59832;51.146;14.024;2024-03-07T04:15:19;57.65;;;30.80;;
71959;SDS011;59832;51.146;14.024;2024-03-07T04:17:46;59.92;;;32.20;;
71959;SDS011;59832;51.146;14.024;2024-03-07T04:20:14;64.20;;;33.28;;
71959;SDS011;59832;51.146;14.024;2024-03-07T04:22:44;63.45;;;33.40;;
71959;SDS011;59832;51.146;14.024;2024-03-07T04:25:11;58.25;;;32.00;;
71959;SDS011;59832;51.146;14.024;2024-03-07T04:30:06;56.88;;;30.85;;
71959;SDS011;59832;51.146;14.024;2024-03-07T04:32:36;54.38;;;29.15;;
71959;SDS011;59832;51.146;14.024;2024-03-07T04:35:04;56.75;;;29.05;;
71959;SDS011;59832;51.146;14.024;2024-03-07T04:37:34;53.03;;;29.08;;
71959;SDS011;59832;51.146;14.024;2024-03-07T04:40:04;59.13;;;30.27;;
71959;SDS011;59832;51.146;14.024;2024-03-07T04:42:41;53.72;;;29.42;;
71959;SDS011;59832;51.146;14.024;2024-03-07T04:45:10;56.60;;;29.25;;
71959;SDS011;59832;51.146;14.024;2024-03-07T04:47:39;56.08;;;29.13;;
71959;SDS011;59832;51.146;14.024;2024-03-07T04:50:11;51.47;;;28.17;;
71959;SDS011;59832;51.146;14.024;2024-03-07T04:52:40;54.88;;;29.02;;
71959;SDS011;59832;51.146;14.024;2024-03-07T04:55:06;53.10;;;30.08;;
71959;SDS011;59832;51.146;14.024;2024-03-07T04:57:37;53.28;;;29.45;;
71959;SDS011;59832;51.146;14.024;2024-03-07T05:00:06;60.08;;;30.50;;
71959;SDS011;59832;51.146;14.024;2024-03-07T05:02:33;61.20;;;30.80;;
71959;SDS011;59832;51.146;14.024;2024-03-07T05:05:00;62.57;;;30.93;;
71959;SDS011;59832;51.146;14.024;2024-03-07T05:07:26;60.53;;;31.10;;
71959;SDS011;59832;51.146;14.024;2024-03-07T05:09:53;58.33;;;29.92;;
71959;SDS011;59832;51.146;14.024;2024-03-07T05:12:19;54.00;;;29.27;;
71959;SDS011;59832;51.146;14.024;2024-03-07T05:14:46;61.75;;;33.47;;
71959;SDS011;59832;51.146;14.024;2024-03-07T05:17:12;70.47;;;35.42;;
71959;SDS011;59832;51.146;14.024;2024-03-07T05:19:39;58.42;;;31.95;;
71959;SDS011;59832;51.146;14.024;2024-03-07T05:22:06;61.72;;;33.90;;
71959;SDS011;59832;51.146;14.024;2024-03-07T05:24:33;62.23;;;33.60;;
71959;SDS011;59832;51.146;14.024;2024-03-07T05:29:27;72.40;;;36.80;;
71959;SDS011;59832;51.146;14.024;2024-03-07T05:31:53;68.65;;;36.83;;
71959;SDS011;59832;51.146;14.024;2024-03-07T05:34:20;68.47;;;36.13;;
71959;SDS011;59832;51.146;14.024;2024-03-07T05:36:49;72.00;;;36.83;;
71959;SDS011;59832;51.146;14.024;2024-03-07T05:39:16;69.05;;;35.47;;
71959;SDS011;59832;51.146;14.024;2024-03-07T05:44:14;67.88;;;35.53;;
71959;SDS011;59832;51.146;14.024;2024-03-07T05:46:41;72.40;;;36.40;;
71959;SDS011;59832;51.146;14.024;2024-03-07T05:49:13;65.57;;;35.30;;
71959;SDS011;59832;51.146;14.024;2024-03-07T05:51:40;69.43;;;36.47;;
71959;SDS011;59832;51.146;14.024;2024-03-07T05:54:13;72.05;;;36.92;;
71959;SDS011;59832;51.146;14.024;2024-03-07T05:56:40;74.20;;;36.17;;
71959;SDS011;59832;51.146;14.024;2024-03-07T05:59:07;74.40;;;36.10;;
71959;SDS011;59832;51.146;14.024;2024-03-07T06:01:36;68.78;;;34.55;;
71959;SDS011;59832;51.146;14.024;2024-03-07T06:04:03;67.90;;;34.40;;
71959;SDS011;59832;51.146;14.024;2024-03-07T06:06:37;67.45;;;34.10;;
71959;SDS011;59832;51.146;14.024;2024-03-07T06:09:05;68.28;;;36.53;;
71959;SDS011;59832;51.146;14.024;2024-03-07T06:11:37;72.68;;;35.55;;
71959;SDS011;59832;51.146;14.024;2024-03-07T06:14:06;77.35;;;38.05;;
71959;SDS011;59832;51.146;14.024;2024-03-07T06:16:33;66.95;;;33.20;;
71959;SDS011;59832;51.146;14.024;2024-03-07T06:19:03;66.88;;;33.33;;
71959;SDS011;59832;51.146;14.024;2024-03-07T06:21:34;67.15;;;34.17;;
71959;SDS011;59832;51.146;14.024;2024-03-07T06:26:31;64.72;;;32.83;;
71959;SDS011;59832;51.146;14.024;2024-03-07T06:29:16;60.47;;;31.55;;
71959;SDS011;59832;51.146;14.024;2024-03-07T06:31:44;64.55;;;30.92;;
71959;SDS011;59832;51.146;14.024;2024-03-07T06:34:13;63.38;;;32.42;;
71959;SDS011;59832;51.146;14.024;2024-03-07T06:36:39;71.68;;;33.90;;
71959;SDS011;59832;51.146;14.024;2024-03-07T06:39:09;66.47;;;33.83;;
71959;SDS011;59832;51.146;14.024;2024-03-07T06:41:39;68.78;;;31.88;;
71959;SDS011;59832;51.146;14.024;2024-03-07T06:44:06;61.58;;;31.13;;
71959;SDS011;59832;51.146;14.024;2024-03-07T06:49:01;59.67;;;30.20;;
71959;SDS011;59832;51.146;14.024;2024-03-07T06:51:30;61.55;;;30.10;;
71959;SDS011;59832;51.146;14.024;2024-03-07T06:54:00;57.33;;;29.67;;
71959;SDS011;59832;51.146;14.024;2024-03-07T06:56:27;57.42;;;29.00;;
71959;SDS011;59832;51.146;14.024;2024-03-07T06:58:54;61.33;;;30.30;;
71959;SDS011;59832;51.146;14.024;2024-03-07T07:01:20;61.03;;;29.80;;
71959;SDS011;59832;51.146;14.024;2024-03-07T07:03:47;58.70;;;30.00;;
71959;SDS011;59832;51.146;14.024;2024-03-07T07:06:15;56.50;;;29.52;;
71959;SDS011;59832;51.146;14.024;2024-03-07T07:08:41;56.05;;;28.63;;
71959;SDS011;59832;51.146;14.024;2024-03-07T07:11:08;51.80;;;27.63;;
71959;SDS011;59832;51.146;14.024;2024-03-07T07:13:38;61.50;;;29.35;;
71959;SDS011;59832;51.146;14.024;2024-03-07T07:16:05;51.47;;;26.33;;
71959;SDS011;59832;51.146;14.024;2024-03-07T07:18:32;53.92;;;27.20;;
71959;SDS011;59832;51.146;14.024;2024-03-07T07:20:58;51.37;;;26.97;;
71959;SDS011;59832;51.146;14.024;2024-03-07T07:23:25;56.20;;;26.70;;
71959;SDS011;59832;51.146;14.024;2024-03-07T07:25:53;45.05;;;24.85;;
71959;SDS011;59832;51.146;14.024;2024-03-07T07:28:19;47.88;;;24.98;;
71959;SDS011;59832;51.146;14.024;2024-03-07T07:30:46;42.15;;;23.90;;
71959;SDS011;59832;51.146;14.024;2024-03-07T07:33:12;44.78;;;23.23;;
71959;SDS011;59832;51.146;14.024;2024-03-07T07:38:07;43.05;;;24.08;;
71959;SDS011;59832;51.146;14.024;2024-03-07T07:40:36;44.40;;;23.23;;
71959;SDS011;59832;51.146;14.024;2024-03-07T07:43:03;48.73;;;25.37;;
71959;SDS011;59832;51.146;14.024;2024-03-07T07:45:30;49.90;;;26.02;;
71959;SDS011;59832;51.146;14.024;2024-03-07T07:47:59;75.63;;;37.30;;
71959;SDS011;59832;51.146;14.024;2024-03-07T07:50:25;61.20;;;31.05;;
71959;SDS011;59832;51.146;14.024;2024-03-07T07:52:53;144.87;;;65.57;;
71959;SDS011;59832;51.146;14.024;2024-03-07T07:55:24;49.83;;;27.30;;
71959;SDS011;59832;51.146;14.024;2024-03-07T07:57:52;39.22;;;21.63;;
71959;SDS011;59832;51.146;14.024;2024-03-07T08:00:21;41.45;;;22.15;;
71959;SDS011;59832;51.146;14.024;2024-03-07T08:02:50;38.40;;;22.40;;
71959;SDS011;59832;51.146;14.024;2024-03-07T08:05:21;42.22;;;23.40;;
71959;SDS011;59832;51.146;14.024;2024-03-07T08:07:52;35.65;;;21.25;;
71959;SDS011;59832;51.146;14.024;2024-03-07T08:10:21;41.00;;;21.65;;
71959;SDS011;59832;51.146;14.024;2024-03-07T08:12:50;36.47;;;20.92;;
71959;SDS011;59832;51.146;14.024;2024-03-07T08:15:16;35.03;;;21.23;;
71959;SDS011;59832;51.146;14.024;2024-03-07T08:17:44;33.83;;;20.30;;
71959;SDS011;59832;51.146;14.024;2024-03-07T08:20:15;34.17;;;20.73;;
71959;SDS011;59832;51.146;14.024;2024-03-07T08:22:44;39.15;;;20.65;;
71959;SDS011;59832;51.146;14.024;2024-03-07T08:25:14;38.42;;;21.13;;
71959;SDS011;59832;51.146;14.024;2024-03-07T08:27:41;35.25;;;19.73;;
71959;SDS011;59832;51.146;14.024;2024-03-07T08:30:10;39.67;;;21.33;;
71959;SDS011;59832;51.146;14.024;2024-03-07T08:32:41;34.70;;;20.98;;
71959;SDS011;59832;51.146;14.024;2024-03-07T08:35:08;38.58;;;21.52;;
71959;SDS011;59832;51.146;14.024;2024-03-07T08:40:03;35.13;;;20.67;;
71959;SDS011;59832;51.146;14.024;2024-03-07T08:42:33;33.17;;;19.90;;
71959;SDS011;59832;51.146;14.024;2024-03-07T08:45:00;41.10;;;21.30;;
71959;SDS011;59832;51.146;14.024;2024-03-07T08:47:31;39.13;;;21.02;;
71959;SDS011;59832;51.146;14.024;2024-03-07T08:49:58;41.05;;;21.10;;
71959;SDS011;59832;51.146;14.024;2024-03-07T08:54:52;37.70;;;20.15;;
71959;SDS011;59832;51.146;14.024;2024-03-07T08:57:20;39.17;;;21.13;;
71959;SDS011;59832;51.146;14.024;2024-03-07T08:59:48;38.92;;;20.55;;
71959;SDS011;59832;51.146;14.024;2024-03-07T09:02:15;35.63;;;20.67;;
71959;SDS011;59832;51.146;14.024;2024-03-07T09:04:41;37.75;;;21.58;;
71959;SDS011;59832;51.146;14.024;2024-03-07T09:07:08;37.88;;;20.33;;
71959;SDS011;59832;51.146;14.024;2024-03-07T09:09:34;40.90;;;22.27;;
71959;SDS011;59832;51.146;14.024;2024-03-07T09:12:01;36.97;;;20.27;;
71959;SDS011;59832;51.146;14.024;2024-03-07T09:14:29;38.90;;;21.40;;
71959;SDS011;59832;51.146;14.024;2024-03-07T09:16:55;39.80;;;21.95;;
71959;SDS011;59832;51.146;14.024;2024-03-07T09:19:23;47.22;;;22.33;;
71959;SDS011;59832;51.146;14.024;2024-03-07T09:21:53;36.95;;;20.35;;
71959;SDS011;59832;51.146;14.024;2024-03-07T09:24:20;38.33;;;22.42;;
71959;SDS011;59832;51.146;14.024;2024-03-07T09:26:50;41.15;;;21.73;;
71959;SDS011;59832;51.146;14.024;2024-03-07T09:29:18;34.95;;;21.40;;
71959;SDS011;59832;51.146;14.024;2024-03-07T09:31:45;36.53;;;20.75;;
71959;SDS011;59832;51.146;14.024;2024-03-07T09:34:13;35.42;;;21.27;;
71959;SDS011;59832;51.146;14.024;2024-03-07T09:36:41;39.65;;;21.15;;
71959;SDS011;59832;51.146;14.024;2024-03-07T09:39:08;35.03;;;19.88;;
71959;SDS011;59832;51.146;14.024;2024-03-07T09:41:35;38.58;;;20.73;;
71959;SDS011;59832;51.146;14.024;2024-03-07T09:44:02;35.40;;;20.90;;
71959;SDS011;59832;51.146;14.024;2024-03-07T09:46:30;38.20;;;20.35;;
71959;SDS011;59832;51.146;14.024;2024-03-07T09:48:58;36.08;;;21.33;;
71959;SDS011;59832;51.146;14.024;2024-03-07T09:51:24;35.40;;;20.75;;
71959;SDS011;59832;51.146;14.024;2024-03-07T09:53:53;39.92;;;20.30;;
71959;SDS011;59832;51.146;14.024;2024-03-07T09:56:24;34.42;;;20.48;;
71959;SDS011;59832;51.146;14.024;2024-03-07T09:58:52;35.60;;;20.25;;
71959;SDS011;59832;51.146;14.024;2024-03-07T10:01:24;34.67;;;20.58;;
71959;SDS011;59832;51.146;14.024;2024-03-07T10:03:53;37.65;;;21.45;;
71959;SDS011;59832;51.146;14.024;2024-03-07T10:06:24;35.28;;;21.80;;
71959;SDS011;59832;51.146;14.024;2024-03-07T10:08:53;38.83;;;20.90;;
71959;SDS011;59832;51.146;14.024;2024-03-07T10:11:19;44.03;;;24.57;;
71959;SDS011;59832;51.146;14.024;2024-03-07T10:13:47;48.03;;;25.40;;
71959;SDS011;59832;51.146;14.024;2024-03-07T10:16:15;45.13;;;22.63;;
71959;SDS011;59832;51.146;14.024;2024-03-07T10:18:43;41.85;;;21.88;;
71959;SDS011;59832;51.146;14.024;2024-03-07T10:21:18;35.20;;;21.02;;
71959;SDS011;59832;51.146;14.024;2024-03-07T10:23:46;37.53;;;21.10;;
71959;SDS011;59832;51.146;14.024;2024-03-07T10:26:13;33.88;;;20.25;;
71959;SDS011;59832;51.146;14.024;2024-03-07T10:28:39;37.10;;;21.10;;
71959;SDS011;59832;51.146;14.024;2024-03-07T10:31:06;34.65;;;19.45;;
71959;SDS011;59832;51.146;14.024;2024-03-07T10:33:39;32.08;;;18.15;;
71959;SDS011;59832;51.146;14.024;2024-03-07T10:36:06;29.27;;;17.83;;
71959;SDS011;59832;51.146;14.024;2024-03-07T10:38:39;32.42;;;18.85;;
71959;SDS011;59832;51.146;14.024;2024-03-07T10:41:06;34.80;;;17.85;;
71959;SDS011;59832;51.146;14.024;2024-03-07T10:43:36;31.42;;;15.88;;
71959;SDS011;59832;51.146;14.024;2024-03-07T10:46:05;29.50;;;16.20;;
71959;SDS011;59832;51.146;14.024;2024-03-07T10:48:38;25.70;;;15.30;;
71959;SDS011;59832;51.146;14.024;2024-03-07T10:59:31;29.73;;;16.35;;
71959;SDS011;59832;51.146;14.024;2024-03-07T11:02:14;27.08;;;16.20;;
71959;SDS011;59832;51.146;14.024;2024-03-07T11:04:49;29.25;;;17.98;;
71959;SDS011;59832;51.146;14.024;2024-03-07T11:07:16;29.85;;;16.83;;
71959;SDS011;59832;51.146;14.024;2024-03-07T11:09:43;28.40;;;16.15;;
71959;SDS011;59832;51.146;14.024;2024-03-07T11:12:12;38.13;;;20.63;;
71959;SDS011;59832;51.146;14.024;2024-03-07T11:14:39;26.73;;;15.95;;
71959;SDS011;59832;51.146;14.024;2024-03-07T11:17:06;29.60;;;17.30;;
71959;SDS011;59832;51.146;14.024;2024-03-07T11:19:35;43.30;;;22.15;;
71959;SDS011;59832;51.146;14.024;2024-03-07T11:22:05;32.22;;;18.38;;
71959;SDS011;59832;51.146;14.024;2024-03-07T11:24:44;27.65;;;15.60;;
71959;SDS011;59832;51.146;14.024;2024-03-07T11:27:26;28.85;;;16.35;;
71959;SDS011;59832;51.146;14.024;2024-03-07T11:29:52;35.10;;;16.77;;
71959;SDS011;59832;51.146;14.024;2024-03-07T11:32:21;37.10;;;17.75;;
71959;SDS011;59832;51.146;14.024;2024-03-07T11:34:50;33.47;;;16.25;;
71959;SDS011;59832;51.146;14.024;2024-03-07T11:37:21;29.38;;;16.25;;
71959;SDS011;59832;51.146;14.024;2024-03-07T11:40:07;25.75;;;14.55;;
71959;SDS011;59832;51.146;14.024;2024-03-07T11:42:34;27.88;;;15.57;;
71959;SDS011;59832;51.146;14.024;2024-03-07T11:45:02;28.33;;;15.85;;
71959;SDS011;59832;51.146;14.024;2024-03-07T11:47:35;30.02;;;16.05;;
71959;SDS011;59832;51.146;14.024;2024-03-07T11:50:05;28.65;;;15.27;;
71959;SDS011;59832;51.146;14.024;2024-03-07T11:52:38;23.88;;;13.93;;
71959;SDS011;59832;51.146;14.024;2024-03-07T11:55:08;23.52;;;13.60;;
71959;SDS011;59832;51.146;14.024;2024-03-07T11:57:34;22.00;;;13.60;;
71959;SDS011;59832;51.146;14.024;2024-03-07T12:00:02;25.90;;;13.43;;
71959;SDS011;59832;51.146;14.024;2024-03-07T12:02:36;20.23;;;13.48;;
71959;SDS011;59832;51.146;14.024;2024-03-07T12:05:04;21.95;;;13.80;;
71959;SDS011;59832;51.146;14.024;2024-03-07T12:07:32;24.65;;;14.55;;
71959;SDS011;59832;51.146;14.024;2024-03-07T12:10:00;20.98;;;14.10;;
71959;SDS011;59832;51.146;14.024;2024-03-07T12:12:30;25.15;;;13.82;;
71959;SDS011;59832;51.146;14.024;2024-03-07T12:14:57;24.10;;;14.45;;
71959;SDS011;59832;51.146;14.024;2024-03-07T12:17:24;30.08;;;18.65;;
71959;SDS011;59832;51.146;14.024;2024-03-07T12:19:51;21.20;;;14.35;;
71959;SDS011;59832;51.146;14.024;2024-03-07T12:22:18;32.77;;;16.20;;
71959;SDS011;59832;51.146;14.024;2024-03-07T12:25:00;28.10;;;15.10;;
71959;SDS011;59832;51.146;14.024;2024-03-07T12:27:35;30.67;;;18.48;;
71959;SDS011;59832;51.146;14.024;2024-03-07T12:30:15;61.05;;;31.60;;
71959;SDS011;59832;51.146;14.024;2024-03-07T12:32:49;59.63;;;31.73;;
71959;SDS011;59832;51.146;14.024;2024-03-07T12:35:18;43.55;;;22.48;;
71959;SDS011;59832;51.146;14.024;2024-03-07T12:37:45;47.33;;;24.90;;
71959;SDS011;59832;51.146;14.024;2024-03-07T12:40:12;52.03;;;27.05;;
71959;SDS011;59832;51.146;14.024;2024-03-07T12:42:54;61.03;;;30.10;;
71959;SDS011;59832;51.146;14.024;2024-03-07T12:45:21;27.17;;;14.32;;
71959;SDS011;59832;51.146;14.024;2024-03-07T12:47:47;49.45;;;25.92;;
71959;SDS011;59832;51.146;14.024;2024-03-07T12:50:17;29.23;;;15.70;;
71959;SDS011;59832;51.146;14.024;2024-03-07T12:52:47;74.70;;;36.53;;
71959;SDS011;59832;51.146;14.024;2024-03-07T12:55:18;57.60;;;31.25;;
71959;SDS011;59832;51.146;14.024;2024-03-07T12:57:44;63.97;;;35.55;;
71959;SDS011;59832;51.146;14.024;2024-03-07T13:00:11;37.58;;;20.75;;
71959;SDS011;59832;51.146;14.024;2024-03-07T13:02:48;21.63;;;12.93;;
71959;SDS011;59832;51.146;14.024;2024-03-07T13:05:15;21.52;;;13.40;;
71959;SDS011;59832;51.146;14.024;2024-03-07T13:07:48;22.80;;;13.63;;
71959;SDS011;59832;51.146;14.024;2024-03-07T13:10:15;24.33;;;14.13;;
71959;SDS011;59832;51.146;14.024;2024-03-07T13:12:42;24.27;;;14.20;;
71959;SDS011;59832;51.146;14.024;2024-03-07T13:15:12;27.75;;;14.80;;
71959;SDS011;59832;51.146;14.024;2024-03-07T13:17:38;25.10;;;14.02;;
71959;SDS011;59832;51.146;14.024;2024-03-07T13:20:05;24.48;;;15.63;;
71959;SDS011;59832;51.146;14.024;2024-03-07T13:22:41;28.52;;;15.85;;
71959;SDS011;59832;51.146;14.024;2024-03-07T13:25:18;25.10;;;15.20;;
71959;SDS011;59832;51.146;14.024;2024-03-07T13:27:57;28.85;;;16.08;;
71959;SDS011;59832;51.146;14.024;2024-03-07T13:30:27;28.85;;;16.10;;
71959;SDS011;59832;51.146;14.024;2024-03-07T13:32:57;23.13;;;14.30;;
71959;SDS011;59832;51.146;14.024;2024-03-07T13:35:25;19.80;;;13.40;;
71959;SDS011;59832;51.146;14.024;2024-03-07T13:37:53;19.30;;;12.25;;
71959;SDS011;59832;51.146;14.024;2024-03-07T13:40:22;25.77;;;14.52;;
71959;SDS011;59832;51.146;14.024;2024-03-07T13:42:53;35.30;;;16.88;;
71959;SDS011;59832;51.146;14.024;2024-03-07T13:45:21;31.13;;;15.82;;
71959;SDS011;59832;51.146;14.024;2024-03-07T13:47:48;28.20;;;16.13;;
71959;SDS011;59832;51.146;14.024;2024-03-07T13:50:16;34.95;;;16.58;;
71959;SDS011;59832;51.146;14.024;2024-03-07T13:53:05;27.33;;;15.48;;
71959;SDS011;59832;51.146;14.024;2024-03-07T13:55:50;24.52;;;14.32;;
71959;SDS011;59832;51.146;14.024;2024-03-07T14:01:14;24.92;;;13.93;;
71959;SDS011;59832;51.146;14.024;2024-03-07T14:12:58;26.10;;;14.85;;
71959;SDS011;59832;51.146;14.024;2024-03-07T14:21:49;37.22;;;20.65;;
71959;SDS011;59832;51.146;14.024;2024-03-07T14:32:37;25.50;;;15.55;;
71959;SDS011;59832;51.146;14.024;2024-03-07T14:35:11;27.60;;;16.63;;
71959;SDS011;59832;51.146;14.024;2024-03-07T14:40:40;30.73;;;15.20;;
71959;SDS011;59832;51.146;14.024;2024-03-07T14:43:06;28.02;;;16.23;;
71959;SDS011;59832;51.146;14.024;2024-03-07T14:45:36;27.23;;;16.85;;
71959;SDS011;59832;51.146;14.024;2024-03-07T14:48:06;28.40;;;17.73;;
71959;SDS011;59832;51.146;14.024;2024-03-07T14:50:37;31.10;;;16.15;;
71959;SDS011;59832;51.146;14.024;2024-03-07T14:53:05;40.78;;;22.52;;
71959;SDS011;59832;51.146;14.024;2024-03-07T14:55:32;46.90;;;25.42;;
71959;SDS011;59832;51.146;14.024;2024-03-07T14:58:00;25.15;;;15.50;;
71959;SDS011;59832;51.146;14.024;2024-03-07T15:00:26;24.95;;;14.98;;
71959;SDS011;59832;51.146;14.024;2024-03-07T15:03:02;24.55;;;15.15;;
71959;SDS011;59832;51.146;14.024;2024-03-07T15:05:29;23.05;;;14.63;;
71959;SDS011;59832;51.146;14.024;2024-03-07T15:07:56;29.40;;;16.05;;
71959;SDS011;59832;51.146;14.024;2024-03-07T15:12:56;32.67;;;16.80;;
71959;SDS011;59832;51.146;14.024;2024-03-07T15:15:23;29.60;;;16.65;;
71959;SDS011;59832;51.146;14.024;2024-03-07T15:17:57;36.33;;;18.80;;
71959;SDS011;59832;51.146;14.024;2024-03-07T15:22:53;29.98;;;16.58;;
71959;SDS011;59832;51.146;14.024;2024-03-07T15:25:21;27.55;;;17.25;;
71959;SDS011;59832;51.146;14.024;2024-03-07T15:27:51;30.48;;;18.00;;